Paso Robles Municipal Airport Paso Robles US
ICAO: KPRB
IATA: PRB
Category: Medium
Scheduled Services: No

Elevation: 840 ft
TransAlt. 18000 ft.

Airport Communications:
ASOS:132.175
OAKLAND CNTR:128.7
HAWTHORNE RDO:122.4
CTAF/UNICOM:123

KPRB Zoom In..

If you have problems with the map follow the link
https://www.worldairports.se/pages/airport.php?
ICAO=KPRB

Runways:

(A) RW 01 length 6008 ft width 150 ft
---- / hdg 14

(B) RW 13 length 4701 ft width 100 ft
---- / hdg 129

(C) RW 19 length 6008 ft width 150 ft
---- / hdg 194

(D) RW 31 length 4701 ft width 100 ft
---- / hdg 309

Location; KPRB
Day. 24 / Time. 07.53 Zulu
* Altimeter: 30.27
* Temperature: 06° c. 42.8°f.
* Wind from: 100° Speed 07 kn.
Dewpoint: 04° c.
Visibility: 10 Statute Miles.
Clouds: Clear (automated report).

KPRB 240753Z AUTO 10007KT 10SM CLR 06/04 A3027 RMK AO2 SLP251 T00610039 401671011 $


Wind From 100°
Speed 07 kn.

 
 
jpsmedia.com for Web Design worldairports.se 2019   terms of use